sensor_id;sensor_type;location;lat;lon;timestamp;temperature;humidity
6740;DHT22;3407;49.882;10.920;2023-04-21T00:04:20;10.20;1.00
6740;DHT22;3407;49.882;10.920;2023-04-21T00:09:16;10.10;1.00
6740;DHT22;3407;49.882;10.920;2023-04-21T00:14:12;10.10;1.00
6740;DHT22;3407;49.882;10.920;2023-04-21T00:19:08;10.00;1.00
6740;DHT22;3407;49.882;10.920;2023-04-21T00:24:04;10.00;1.00
6740;DHT22;3407;49.882;10.920;2023-04-21T00:28:59;10.00;1.00
6740;DHT22;3407;49.882;10.920;2023-04-21T00:33:55;9.80;1.00
6740;DHT22;3407;49.882;10.920;2023-04-21T00:38:50;9.70;1.00
6740;DHT22;3407;49.882;10.920;2023-04-21T00:44:06;9.50;1.00
6740;DHT22;3407;49.882;10.920;2023-04-21T00:49:06;9.40;1.00
6740;DHT22;3407;49.882;10.920;2023-04-21T00:54:04;9.30;1.00
6740;DHT22;3407;49.882;10.920;2023-04-21T00:59:00;9.20;1.00
6740;DHT22;3407;49.882;10.920;2023-04-21T01:03:57;9.00;1.00
6740;DHT22;3407;49.882;10.920;2023-04-21T01:08:54;8.90;1.00
6740;DHT22;3407;49.882;10.920;2023-04-21T01:13:53;8.80;1.00
6740;DHT22;3407;49.882;10.920;2023-04-21T01:18:50;8.80;1.00
6740;DHT22;3407;49.882;10.920;2023-04-21T01:23:47;8.70;1.00
6740;DHT22;3407;49.882;10.920;2023-04-21T01:28:43;8.70;1.00
6740;DHT22;3407;49.882;10.920;2023-04-21T01:33:38;8.60;1.00
6740;DHT22;3407;49.882;10.920;2023-04-21T01:38:38;8.60;1.00
6740;DHT22;3407;49.882;10.920;2023-04-21T01:43:34;8.60;1.00
6740;DHT22;3407;49.882;10.920;2023-04-21T01:48:29;8.50;1.00
6740;DHT22;3407;49.882;10.920;2023-04-21T01:53:25;8.50;1.00
6740;DHT22;3407;49.882;10.920;2023-04-21T01:58:21;8.40;1.00
6740;DHT22;3407;49.882;10.920;2023-04-21T02:03:16;8.30;1.00
6740;DHT22;3407;49.882;10.920;2023-04-21T02:08:12;8.20;1.00
6740;DHT22;3407;49.882;10.920;2023-04-21T02:13:07;8.20;1.00
6740;DHT22;3407;49.882;10.920;2023-04-21T02:18:03;8.10;1.00
6740;DHT22;3407;49.882;10.920;2023-04-21T02:22:58;8.00;1.00
6740;DHT22;3407;49.882;10.920;2023-04-21T02:27:54;8.00;1.00
6740;DHT22;3407;49.882;10.920;2023-04-21T02:32:49;7.90;1.00
6740;DHT22;3407;49.882;10.920;2023-04-21T02:37:45;7.90;1.00
6740;DHT22;3407;49.882;10.920;2023-04-21T02:42:40;7.80;1.00
6740;DHT22;3407;49.882;10.920;2023-04-21T02:47:36;7.80;1.00
6740;DHT22;3407;49.882;10.920;2023-04-21T02:52:35;7.80;1.00
6740;DHT22;3407;49.882;10.920;2023-04-21T02:57:31;7.70;1.00
6740;DHT22;3407;49.882;10.920;2023-04-21T03:02:27;7.80;1.00
6740;DHT22;3407;49.882;10.920;2023-04-21T03:07:22;7.80;1.00
6740;DHT22;3407;49.882;10.920;2023-04-21T03:12:18;7.80;1.00
6740;DHT22;3407;49.882;10.920;2023-04-21T03:17:13;7.90;1.00
6740;DHT22;3407;49.882;10.920;2023-04-21T03:22:09;8.00;1.00
6740;DHT22;3407;49.882;10.920;2023-04-21T03:27:05;8.10;1.00
6740;DHT22;3407;49.882;10.920;2023-04-21T03:32:00;8.30;1.00
6740;DHT22;3407;49.882;10.920;2023-04-21T03:36:56;8.50;1.00
6740;DHT22;3407;49.882;10.920;2023-04-21T03:41:51;8.50;1.00
6740;DHT22;3407;49.882;10.920;2023-04-21T03:46:47;8.40;1.00
6740;DHT22;3407;49.882;10.920;2023-04-21T03:51:42;8.40;1.00
6740;DHT22;3407;49.882;10.920;2023-04-21T03:56:38;8.30;1.00
6740;DHT22;3407;49.882;10.920;2023-04-21T04:01:33;8.20;1.00
6740;DHT22;3407;49.882;10.920;2023-04-21T04:06:29;8.10;1.00
6740;DHT22;3407;49.882;10.920;2023-04-21T04:11:26;8.00;1.00
6740;DHT22;3407;49.882;10.920;2023-04-21T04:16:21;8.00;1.00
6740;DHT22;3407;49.882;10.920;2023-04-21T04:21:17;8.00;1.00
6740;DHT22;3407;49.882;10.920;2023-04-21T04:26:12;8.10;1.00
6740;DHT22;3407;49.882;10.920;2023-04-21T04:31:08;8.10;1.00
6740;DHT22;3407;49.882;10.920;2023-04-21T04:36:03;8.00;1.00
6740;DHT22;3407;49.882;10.920;2023-04-21T04:40:59;8.10;1.00
6740;DHT22;3407;49.882;10.920;2023-04-21T04:45:56;8.10;1.00
6740;DHT22;3407;49.882;10.920;2023-04-21T04:50:53;8.10;1.00
6740;DHT22;3407;49.882;10.920;2023-04-21T04:55:48;8.30;1.00
6740;DHT22;3407;49.882;10.920;2023-04-21T05:00:44;8.60;1.00
6740;DHT22;3407;49.882;10.920;2023-04-21T05:05:39;8.70;1.00
6740;DHT22;3407;49.882;10.920;2023-04-21T05:10:35;8.90;1.00
6740;DHT22;3407;49.882;10.920;2023-04-21T05:15:30;9.10;1.00
6740;DHT22;3407;49.882;10.920;2023-04-21T05:20:27;9.20;1.00
6740;DHT22;3407;49.882;10.920;2023-04-21T05:25:22;9.40;1.00
6740;DHT22;3407;49.882;10.920;2023-04-21T05:30:18;9.70;1.00
6740;DHT22;3407;49.882;10.920;2023-04-21T05:35:13;9.90;1.00
6740;DHT22;3407;49.882;10.920;2023-04-21T05:40:09;10.20;1.00
6740;DHT22;3407;49.882;10.920;2023-04-21T05:45:05;11.10;1.00
6740;DHT22;3407;49.882;10.920;2023-04-21T05:50:01;13.00;99.90
6740;DHT22;3407;49.882;10.920;2023-04-21T05:54:57;15.10;99.90
6740;DHT22;3407;49.882;10.920;2023-04-21T05:59:56;17.20;1.00
6740;DHT22;3407;49.882;10.920;2023-04-21T06:04:51;18.60;99.90
6740;DHT22;3407;49.882;10.920;2023-04-21T06:09:50;20.40;99.90
6740;DHT22;3407;49.882;10.920;2023-04-21T06:14:46;20.10;99.90
6740;DHT22;3407;49.882;10.920;2023-04-21T06:19:42;19.70;99.90
6740;DHT22;3407;49.882;10.920;2023-04-21T06:24:37;20.00;99.90
6740;DHT22;3407;49.882;10.920;2023-04-21T06:29:33;20.00;99.90
6740;DHT22;3407;49.882;10.920;2023-04-21T06:34:28;19.60;99.90
6740;DHT22;3407;49.882;10.920;2023-04-21T06:39:24;20.60;99.90
6740;DHT22;3407;49.882;10.920;2023-04-21T06:44:20;19.90;99.90
6740;DHT22;3407;49.882;10.920;2023-04-21T06:49:15;21.10;99.90
6740;DHT22;3407;49.882;10.920;2023-04-21T06:54:11;20.70;99.90
6740;DHT22;3407;49.882;10.920;2023-04-21T06:59:06;20.40;99.90
6740;DHT22;3407;49.882;10.920;2023-04-21T07:04:02;19.80;99.90
6740;DHT22;3407;49.882;10.920;2023-04-21T07:08:58;20.60;99.90
6740;DHT22;3407;49.882;10.920;2023-04-21T07:13:54;22.10;99.90
6740;DHT22;3407;49.882;10.920;2023-04-21T07:18:50;21.30;99.90
6740;DHT22;3407;49.882;10.920;2023-04-21T07:23:45;21.20;99.90
6740;DHT22;3407;49.882;10.920;2023-04-21T07:28:41;22.80;99.90
6740;DHT22;3407;49.882;10.920;2023-04-21T07:33:36;25.20;99.90
6740;DHT22;3407;49.882;10.920;2023-04-21T07:38:32;24.40;99.90
6740;DHT22;3407;49.882;10.920;2023-04-21T07:43:27;25.10;99.90
6740;DHT22;3407;49.882;10.920;2023-04-21T07:48:25;25.40;99.90
6740;DHT22;3407;49.882;10.920;2023-04-21T07:53:20;25.00;99.90
6740;DHT22;3407;49.882;10.920;2023-04-21T07:58:16;23.40;99.90
6740;DHT22;3407;49.882;10.920;2023-04-21T08:03:11;25.00;99.90
6740;DHT22;3407;49.882;10.920;2023-04-21T08:08:07;25.80;99.90
6740;DHT22;3407;49.882;10.920;2023-04-21T08:13:02;25.80;99.90
6740;DHT22;3407;49.882;10.920;2023-04-21T08:18:00;25.60;99.90
6740;DHT22;3407;49.882;10.920;2023-04-21T08:22:56;25.60;99.90
6740;DHT22;3407;49.882;10.920;2023-04-21T08:27:52;25.80;99.90
6740;DHT22;3407;49.882;10.920;2023-04-21T08:32:47;25.70;99.90
6740;DHT22;3407;49.882;10.920;2023-04-21T08:37:43;25.70;99.90
6740;DHT22;3407;49.882;10.920;2023-04-21T08:42:40;27.20;99.90
6740;DHT22;3407;49.882;10.920;2023-04-21T08:47:39;27.50;99.90
6740;DHT22;3407;49.882;10.920;2023-04-21T08:52:35;26.50;99.90
6740;DHT22;3407;49.882;10.920;2023-04-21T08:57:31;26.70;99.90
6740;DHT22;3407;49.882;10.920;2023-04-21T09:02:26;27.40;99.90
6740;DHT22;3407;49.882;10.920;2023-04-21T09:07:30;27.90;99.90
6740;DHT22;3407;49.882;10.920;2023-04-21T09:12:26;27.50;99.90
6740;DHT22;3407;49.882;10.920;2023-04-21T09:17:27;27.40;99.90
6740;DHT22;3407;49.882;10.920;2023-04-21T09:22:26;27.00;99.90
6740;DHT22;3407;49.882;10.920;2023-04-21T09:27:23;26.90;99.90
6740;DHT22;3407;49.882;10.920;2023-04-21T09:32:19;26.80;99.90
6740;DHT22;3407;49.882;10.920;2023-04-21T09:37:15;25.00;99.90
6740;DHT22;3407;49.882;10.920;2023-04-21T09:42:10;26.90;99.90
6740;DHT22;3407;49.882;10.920;2023-04-21T09:47:09;27.70;99.90
6740;DHT22;3407;49.882;10.920;2023-04-21T09:52:05;29.80;99.90
6740;DHT22;3407;49.882;10.920;2023-04-21T09:57:03;31.00;99.90
6740;DHT22;3407;49.882;10.920;2023-04-21T10:02:04;31.10;99.90
6740;DHT22;3407;49.882;10.920;2023-04-21T10:07:00;30.90;99.90
6740;DHT22;3407;49.882;10.920;2023-04-21T10:11:56;32.20;99.90
6740;DHT22;3407;49.882;10.920;2023-04-21T10:17:05;30.40;99.90
6740;DHT22;3407;49.882;10.920;2023-04-21T10:22:02;31.10;99.90
6740;DHT22;3407;49.882;10.920;2023-04-21T10:26:57;32.60;99.90
6740;DHT22;3407;49.882;10.920;2023-04-21T10:31:56;30.80;99.90
6740;DHT22;3407;49.882;10.920;2023-04-21T10:41:50;32.80;99.90
6740;DHT22;3407;49.882;10.920;2023-04-21T10:46:48;33.30;99.90
6740;DHT22;3407;49.882;10.920;2023-04-21T10:56:56;33.30;99.90
6740;DHT22;3407;49.882;10.920;2023-04-21T11:01:52;33.70;99.90
6740;DHT22;3407;49.882;10.920;2023-04-21T11:07:08;32.80;99.90
6740;DHT22;3407;49.882;10.920;2023-04-21T11:12:12;35.10;99.90
6740;DHT22;3407;49.882;10.920;2023-04-21T11:17:12;34.50;99.90
6740;DHT22;3407;49.882;10.920;2023-04-21T11:22:08;31.80;99.90
6740;DHT22;3407;49.882;10.920;2023-04-21T11:27:07;33.30;99.90
6740;DHT22;3407;49.882;10.920;2023-04-21T11:32:05;34.10;99.90
6740;DHT22;3407;49.882;10.920;2023-04-21T11:37:01;33.50;99.90
6740;DHT22;3407;49.882;10.920;2023-04-21T11:41:56;30.80;98.40
6740;DHT22;3407;49.882;10.920;2023-04-21T11:46:52;29.60;99.20
6740;DHT22;3407;49.882;10.920;2023-04-21T11:51:49;29.30;99.80
6740;DHT22;3407;49.882;10.920;2023-04-21T11:56:47;30.00;99.90
6740;DHT22;3407;49.882;10.920;2023-04-21T12:01:51;31.60;99.80
6740;DHT22;3407;49.882;10.920;2023-04-21T12:06:59;30.40;98.40
6740;DHT22;3407;49.882;10.920;2023-04-21T12:11:56;29.40;99.30
6740;DHT22;3407;49.882;10.920;2023-04-21T12:16:54;28.80;99.90
6740;DHT22;3407;49.882;10.920;2023-04-21T12:21:54;29.70;99.10
6740;DHT22;3407;49.882;10.920;2023-04-21T12:26:50;29.70;98.20
6740;DHT22;3407;49.882;10.920;2023-04-21T12:31:46;29.80;98.60
6740;DHT22;3407;49.882;10.920;2023-04-21T12:36:42;29.80;96.70
6740;DHT22;3407;49.882;10.920;2023-04-21T12:41:37;27.90;97.20
6740;DHT22;3407;49.882;10.920;2023-04-21T12:46:33;27.30;97.80
6740;DHT22;3407;49.882;10.920;2023-04-21T12:51:29;26.40;97.00
6740;DHT22;3407;49.882;10.920;2023-04-21T12:56:26;24.80;97.80
6740;DHT22;3407;49.882;10.920;2023-04-21T13:01:21;24.90;99.90
6740;DHT22;3407;49.882;10.920;2023-04-21T13:06:17;26.70;98.70
6740;DHT22;3407;49.882;10.920;2023-04-21T13:11:12;27.30;98.10
6740;DHT22;3407;49.882;10.920;2023-04-21T13:16:08;26.80;97.70
6740;DHT22;3407;49.882;10.920;2023-04-21T13:21:04;27.20;98.00
6740;DHT22;3407;49.882;10.920;2023-04-21T13:25:59;27.90;98.50
6740;DHT22;3407;49.882;10.920;2023-04-21T13:30:55;28.00;97.50
6740;DHT22;3407;49.882;10.920;2023-04-21T13:35:50;25.70;97.00
6740;DHT22;3407;49.882;10.920;2023-04-21T13:40:46;23.70;97.80
6740;DHT22;3407;49.882;10.920;2023-04-21T13:45:43;23.00;99.90
6740;DHT22;3407;49.882;10.920;2023-04-21T13:50:40;22.80;99.90
6740;DHT22;3407;49.882;10.920;2023-04-21T13:55:35;22.10;99.90
6740;DHT22;3407;49.882;10.920;2023-04-21T14:00:31;22.50;99.90
6740;DHT22;3407;49.882;10.920;2023-04-21T14:05:26;23.10;99.90
6740;DHT22;3407;49.882;10.920;2023-04-21T14:10:22;23.50;99.90
6740;DHT22;3407;49.882;10.920;2023-04-21T14:15:18;23.70;99.90
6740;DHT22;3407;49.882;10.920;2023-04-21T14:20:13;23.50;99.90
6740;DHT22;3407;49.882;10.920;2023-04-21T14:25:09;23.30;99.90
6740;DHT22;3407;49.882;10.920;2023-04-21T14:30:05;23.30;99.90
6740;DHT22;3407;49.882;10.920;2023-04-21T14:35:01;22.50;99.90
6740;DHT22;3407;49.882;10.920;2023-04-21T14:39:58;21.90;99.90
6740;DHT22;3407;49.882;10.920;2023-04-21T14:44:53;21.50;99.90
6740;DHT22;3407;49.882;10.920;2023-04-21T14:49:49;21.40;99.90
6740;DHT22;3407;49.882;10.920;2023-04-21T14:54:46;21.60;99.90
6740;DHT22;3407;49.882;10.920;2023-04-21T14:59:42;21.40;99.90
6740;DHT22;3407;49.882;10.920;2023-04-21T15:04:40;21.30;99.90
6740;DHT22;3407;49.882;10.920;2023-04-21T15:09:36;21.20;99.90
6740;DHT22;3407;49.882;10.920;2023-04-21T15:14:33;21.10;99.90
6740;DHT22;3407;49.882;10.920;2023-04-21T15:19:28;21.20;99.90
6740;DHT22;3407;49.882;10.920;2023-04-21T15:24:24;21.30;99.90
6740;DHT22;3407;49.882;10.920;2023-04-21T15:29:19;21.40;99.90
6740;DHT22;3407;49.882;10.920;2023-04-21T15:34:15;21.60;99.90
6740;DHT22;3407;49.882;10.920;2023-04-21T15:39:10;21.80;99.90
6740;DHT22;3407;49.882;10.920;2023-04-21T15:44:08;21.80;99.90
6740;DHT22;3407;49.882;10.920;2023-04-21T15:49:04;21.40;99.90
6740;DHT22;3407;49.882;10.920;2023-04-21T15:54:00;21.00;99.90
6740;DHT22;3407;49.882;10.920;2023-04-21T15:58:56;20.80;99.90
6740;DHT22;3407;49.882;10.920;2023-04-21T16:03:51;20.60;99.90
6740;DHT22;3407;49.882;10.920;2023-04-21T16:08:47;20.40;99.90
6740;DHT22;3407;49.882;10.920;2023-04-21T16:13:42;20.50;99.90
6740;DHT22;3407;49.882;10.920;2023-04-21T16:18:38;20.60;99.90
6740;DHT22;3407;49.882;10.920;2023-04-21T16:23:33;20.60;99.90
6740;DHT22;3407;49.882;10.920;2023-04-21T16:28:29;20.60;99.90
6740;DHT22;3407;49.882;10.920;2023-04-21T16:33:25;20.50;99.90
6740;DHT22;3407;49.882;10.920;2023-04-21T16:38:20;20.40;99.90
6740;DHT22;3407;49.882;10.920;2023-04-21T16:43:16;20.20;99.90
6740;DHT22;3407;49.882;10.920;2023-04-21T16:48:11;20.10;99.90
6740;DHT22;3407;49.882;10.920;2023-04-21T16:53:07;20.00;99.90
6740;DHT22;3407;49.882;10.920;2023-04-21T16:58:03;19.90;99.90
6740;DHT22;3407;49.882;10.920;2023-04-21T17:02:58;19.80;99.90
6740;DHT22;3407;49.882;10.920;2023-04-21T17:07:54;19.80;99.90
6740;DHT22;3407;49.882;10.920;2023-04-21T17:12:50;19.70;99.90
6740;DHT22;3407;49.882;10.920;2023-04-21T17:17:46;19.70;99.90
6740;DHT22;3407;49.882;10.920;2023-04-21T17:22:42;19.70;99.90
6740;DHT22;3407;49.882;10.920;2023-04-21T17:27:38;19.70;99.90
6740;DHT22;3407;49.882;10.920;2023-04-21T17:32:35;19.70;99.90
6740;DHT22;3407;49.882;10.920;2023-04-21T17:37:32;19.50;99.90
6740;DHT22;3407;49.882;10.920;2023-04-21T17:42:28;19.30;99.90
6740;DHT22;3407;49.882;10.920;2023-04-21T17:47:23;19.10;99.90
6740;DHT22;3407;49.882;10.920;2023-04-21T17:52:19;18.90;99.90
6740;DHT22;3407;49.882;10.920;2023-04-21T17:57:14;18.80;99.90
6740;DHT22;3407;49.882;10.920;2023-04-21T18:02:10;18.60;99.90
6740;DHT22;3407;49.882;10.920;2023-04-21T18:07:05;18.50;99.90
6740;DHT22;3407;49.882;10.920;2023-04-21T18:12:01;18.40;99.90
6740;DHT22;3407;49.882;10.920;2023-04-21T18:16:58;18.30;99.90
6740;DHT22;3407;49.882;10.920;2023-04-21T18:21:53;18.20;99.90
6740;DHT22;3407;49.882;10.920;2023-04-21T18:26:49;18.00;99.90
6740;DHT22;3407;49.882;10.920;2023-04-21T18:31:45;17.80;99.90
6740;DHT22;3407;49.882;10.920;2023-04-21T18:36:41;17.60;99.90
6740;DHT22;3407;49.882;10.920;2023-04-21T18:41:39;17.50;99.90
6740;DHT22;3407;49.882;10.920;2023-04-21T18:46:35;17.40;99.90
6740;DHT22;3407;49.882;10.920;2023-04-21T18:51:30;17.30;99.90
6740;DHT22;3407;49.882;10.920;2023-04-21T18:56:26;17.30;99.90
6740;DHT22;3407;49.882;10.920;2023-04-21T19:01:22;17.10;99.90
6740;DHT22;3407;49.882;10.920;2023-04-21T19:06:18;16.90;99.90
6740;DHT22;3407;49.882;10.920;2023-04-21T19:11:13;16.90;99.90
6740;DHT22;3407;49.882;10.920;2023-04-21T19:16:10;16.70;99.90
6740;DHT22;3407;49.882;10.920;2023-04-21T19:21:06;16.60;99.90
6740;DHT22;3407;49.882;10.920;2023-04-21T19:26:04;16.40;99.90
6740;DHT22;3407;49.882;10.920;2023-04-21T19:31:00;16.30;99.90
6740;DHT22;3407;49.882;10.920;2023-04-21T19:35:57;16.20;99.90
6740;DHT22;3407;49.882;10.920;2023-04-21T19:40:53;16.10;99.90
6740;DHT22;3407;49.882;10.920;2023-04-21T19:45:49;16.10;99.90
6740;DHT22;3407;49.882;10.920;2023-04-21T19:50:45;16.10;99.90
6740;DHT22;3407;49.882;10.920;2023-04-21T19:55:41;16.00;99.90
6740;DHT22;3407;49.882;10.920;2023-04-21T20:00:37;16.00;99.90
6740;DHT22;3407;49.882;10.920;2023-04-21T20:05:32;15.90;99.90
6740;DHT22;3407;49.882;10.920;2023-04-21T20:10:28;15.90;99.90
6740;DHT22;3407;49.882;10.920;2023-04-21T20:15:23;16.00;99.90
6740;DHT22;3407;49.882;10.920;2023-04-21T20:20:21;16.00;99.90
6740;DHT22;3407;49.882;10.920;2023-04-21T20:25:16;15.90;99.90
6740;DHT22;3407;49.882;10.920;2023-04-21T20:30:13;15.80;99.90
6740;DHT22;3407;49.882;10.920;2023-04-21T20:35:09;15.70;99.90
6740;DHT22;3407;49.882;10.920;2023-04-21T20:40:06;15.60;99.90
6740;DHT22;3407;49.882;10.920;2023-04-21T20:45:03;15.50;99.90
6740;DHT22;3407;49.882;10.920;2023-04-21T20:50:00;15.40;99.90
6740;DHT22;3407;49.882;10.920;2023-04-21T20:54:56;15.40;99.90
6740;DHT22;3407;49.882;10.920;2023-04-21T20:59:51;15.30;99.90
6740;DHT22;3407;49.882;10.920;2023-04-21T21:04:47;15.20;99.90
6740;DHT22;3407;49.882;10.920;2023-04-21T21:09:43;15.10;99.90
6740;DHT22;3407;49.882;10.920;2023-04-21T21:14:38;15.00;99.90
6740;DHT22;3407;49.882;10.920;2023-04-21T21:19:34;14.80;99.90
6740;DHT22;3407;49.882;10.920;2023-04-21T21:24:29;14.70;99.90
6740;DHT22;3407;49.882;10.920;2023-04-21T21:29:25;14.50;1.00
6740;DHT22;3407;49.882;10.920;2023-04-21T21:34:20;14.40;1.00
6740;DHT22;3407;49.882;10.920;2023-04-21T21:39:16;14.20;1.00
6740;DHT22;3407;49.882;10.920;2023-04-21T21:44:11;14.10;1.00
6740;DHT22;3407;49.882;10.920;2023-04-21T21:49:07;13.90;1.00
6740;DHT22;3407;49.882;10.920;2023-04-21T21:54:03;13.70;86.30
6740;DHT22;3407;49.882;10.920;2023-04-21T21:58:58;13.50;99.90
6740;DHT22;3407;49.882;10.920;2023-04-21T22:03:54;13.30;99.90
6740;DHT22;3407;49.882;10.920;2023-04-21T22:08:49;13.10;1.00
6740;DHT22;3407;49.882;10.920;2023-04-21T22:13:45;12.90;1.00
6740;DHT22;3407;49.882;10.920;2023-04-21T22:18:41;12.80;99.90
6740;DHT22;3407;49.882;10.920;2023-04-21T22:23:37;12.70;99.90
6740;DHT22;3407;49.882;10.920;2023-04-21T22:28:33;12.60;99.90
6740;DHT22;3407;49.882;10.920;2023-04-21T22:33:28;12.50;1.00
6740;DHT22;3407;49.882;10.920;2023-04-21T22:38:24;12.40;99.90
6740;DHT22;3407;49.882;10.920;2023-04-21T22:43:19;12.30;99.90
6740;DHT22;3407;49.882;10.920;2023-04-21T22:48:15;12.20;99.90
6740;DHT22;3407;49.882;10.920;2023-04-21T22:53:11;12.10;99.90
6740;DHT22;3407;49.882;10.920;2023-04-21T22:58:07;12.00;1.00
6740;DHT22;3407;49.882;10.920;2023-04-21T23:03:03;11.90;99.90
6740;DHT22;3407;49.882;10.920;2023-04-21T23:07:58;11.80;1.00
6740;DHT22;3407;49.882;10.920;2023-04-21T23:12:54;11.70;99.90
6740;DHT22;3407;49.882;10.920;2023-04-21T23:17:50;11.60;99.90
6740;DHT22;3407;49.882;10.920;2023-04-21T23:22:45;11.60;1.00
6740;DHT22;3407;49.882;10.920;2023-04-21T23:27:41;11.60;99.90
6740;DHT22;3407;49.882;10.920;2023-04-21T23:32:36;11.70;1.00
6740;DHT22;3407;49.882;10.920;2023-04-21T23:37:32;11.60;1.00
6740;DHT22;3407;49.882;10.920;2023-04-21T23:42:27;11.60;1.00
6740;DHT22;3407;49.882;10.920;2023-04-21T23:47:23;11.50;99.90
6740;DHT22;3407;49.882;10.920;2023-04-21T23:52:18;11.50;1.00
6740;DHT22;3407;49.882;10.920;2023-04-21T23:57:14;11.50;1.00
